Lendelede, Belgium
Current Conditions -  °F | °C
As of 2:00 AM on Thursday 23 Oct 2014 (Local Time) from LFQQ Reporting Station
Overcast Overcast  
Wind Chill: 50°   Ceiling: 3600
Heat Index: 50°   Visibility: 6mi
Dew Point: 45°   Wind: 6mph
Humidity: 82%   Direction: 230°SW
Pressure: 30.24"   Gusts: NA
Location:  50.89°N, 3.24°E
Report Text: LFQQ 230000Z AUTO 23005KT 9999 FEW027 OVC036 10/07 Q1024
Loading
Personal Weather Stations






























Interactive Weather Map
Tropical Storm Tracking
New forecast layout! Learn more

10-Day Weather Forecast

Advertisements
Track Severe Weather on mobile